createdAt,value
2023-01-04T00:04:33.308Z,101497.38
2023-01-04T00:09:34.807Z,101498.69
2023-01-04T00:14:36.245Z,101504.88
2023-01-04T00:19:37.851Z,101501.13
2023-01-04T00:24:39.274Z,101499.25
2023-01-04T00:29:40.818Z,101491.00
2023-01-04T00:34:42.416Z,101486.25
2023-01-04T00:39:43.968Z,101479.38
2023-01-04T00:44:45.625Z,101482.50
2023-01-04T00:49:47.059Z,101465.53
2023-01-04T00:54:48.494Z,101456.56
2023-01-04T00:59:50.107Z,101447.53
2023-01-04T01:04:51.564Z,101442.09
2023-01-04T01:09:53.022Z,101442.84
2023-01-04T01:14:58.701Z,101431.16
2023-01-04T01:20:01.945Z,101419.78
2023-01-04T01:25:03.964Z,101412.44
2023-01-04T01:30:06.407Z,101414.91
2023-01-04T01:35:08.327Z,101406.16
2023-01-04T01:40:10.700Z,101407.16
2023-01-04T01:45:27.331Z,101400.38
2023-01-04T01:50:47.353Z,101393.03
2023-01-04T01:55:50.816Z,101378.09
2023-01-04T02:00:52.336Z,101372.53
2023-01-04T02:05:55.851Z,101362.97
2023-01-04T02:10:58.308Z,101367.38
2023-01-04T02:16:32.079Z,101358.59
2023-01-04T02:21:49.272Z,101350.91
2023-01-04T02:27:31.919Z,101350.13
2023-01-04T02:32:50.901Z,101339.59
2023-01-04T02:38:09.255Z,101331.19
2023-01-04T02:43:16.611Z,101320.56
2023-01-04T02:48:18.134Z,101317.19
2023-01-04T02:53:24.578Z,101304.88
2023-01-04T02:58:44.597Z,101294.25
2023-01-04T03:04:01.952Z,101292.19
2023-01-04T03:09:16.286Z,101303.25
2023-01-04T03:14:32.112Z,101283.03
2023-01-04T03:19:40.096Z,101278.28
2023-01-04T03:24:41.509Z,101268.91
2023-01-04T03:30:01.448Z,101248.38
2023-01-04T03:35:03.469Z,101234.25
2023-01-04T03:40:29.063Z,101236.78
2023-01-04T03:45:42.247Z,101229.13
2023-01-04T03:50:51.665Z,101226.91
2023-01-04T03:55:55.637Z,101224.94
2023-01-04T04:00:57.693Z,101224.63
2023-01-04T04:05:59.290Z,101201.84
2023-01-04T04:11:02.504Z,101196.47
2023-01-04T04:16:04.153Z,101191.00
2023-01-04T04:21:05.948Z,101192.47
2023-01-04T04:26:07.386Z,101208.09
2023-01-04T04:31:11.778Z,101186.06
2023-01-04T04:36:13.292Z,101169.06
2023-01-04T04:41:15.114Z,101168.41
2023-01-04T04:46:18.932Z,101168.88
2023-01-04T04:51:20.767Z,101167.53
2023-01-04T04:56:22.266Z,101162.31
2023-01-04T05:01:24.025Z,101150.75
2023-01-04T05:06:25.645Z,101140.75
2023-01-04T05:11:27.199Z,101139.69
2023-01-04T05:16:28.742Z,101144.94
2023-01-04T05:21:30.285Z,101132.53
2023-01-04T05:26:31.945Z,101129.47
2023-01-04T05:31:33.504Z,101126.91
2023-01-04T05:36:35.057Z,101122.91
2023-01-04T05:41:36.666Z,101132.28
2023-01-04T05:46:38.330Z,101132.16
2023-01-04T05:51:40.040Z,101129.66
2023-01-04T05:56:41.467Z,101134.22
2023-01-04T06:01:43.480Z,101116.16
2023-01-04T06:06:45.232Z,101104.22
2023-01-04T06:11:46.773Z,101089.06
2023-01-04T06:16:48.403Z,101072.06
2023-01-04T06:21:50.040Z,101096.84
2023-01-04T06:26:51.717Z,101093.16
2023-01-04T06:31:55.543Z,101088.94
2023-01-04T06:36:56.978Z,101082.50
2023-01-04T06:42:05.802Z,101070.59
2023-01-04T06:47:08.320Z,101068.91
2023-01-04T06:52:09.821Z,101060.25
2023-01-04T06:57:11.956Z,101043.59
2023-01-04T07:02:15.342Z,101025.97
2023-01-04T07:07:16.996Z,101038.00
2023-01-04T07:12:18.563Z,101032.72
2023-01-04T07:17:24.897Z,101053.59
2023-01-04T07:22:29.850Z,101051.28
2023-01-04T07:27:31.661Z,101045.47
2023-01-04T07:32:33.090Z,101051.91
2023-01-04T07:37:34.765Z,101050.00
2023-01-04T07:42:36.563Z,101057.19
2023-01-04T07:47:38.128Z,101041.91
2023-01-04T07:52:39.591Z,101037.47
2023-01-04T07:57:41.126Z,101055.81
2023-01-04T08:02:42.753Z,101040.63
2023-01-04T08:07:44.424Z,101027.34
2023-01-04T08:12:45.874Z,101031.13
2023-01-04T08:17:47.916Z,101024.78
2023-01-04T08:22:49.333Z,101048.41
2023-01-04T08:27:50.938Z,101051.44
2023-01-04T08:32:52.575Z,101043.22
2023-01-04T08:37:54.153Z,101033.75
2023-01-04T08:42:56.094Z,101046.06
2023-01-04T08:47:57.738Z,101023.94
2023-01-04T08:52:59.458Z,101029.19
2023-01-04T08:58:01.066Z,101013.38
2023-01-04T09:03:02.872Z,101035.22
2023-01-04T09:08:05.041Z,101036.56
2023-01-04T09:13:06.942Z,101037.34
2023-01-04T09:23:31.471Z,101033.13
2023-01-04T09:28:33.081Z,101034.97
2023-01-04T09:34:03.882Z,101028.59
2023-01-04T09:38:56.353Z,101014.84
2023-01-04T09:44:11.053Z,101014.69
2023-01-04T09:49:19.690Z,101017.28
2023-01-04T10:00:44.981Z,101008.97
2023-01-04T10:05:46.493Z,101007.91
2023-01-04T10:11:06.709Z,100999.19
2023-01-04T10:16:44.356Z,100985.16
2023-01-04T10:22:04.809Z,100953.97
2023-01-04T10:27:15.770Z,100960.47
2023-01-04T10:32:22.943Z,100957.69
2023-01-04T10:37:29.267Z,100955.56
2023-01-04T10:42:32.614Z,100954.63
2023-01-04T10:47:46.613Z,100947.34
2023-01-04T10:52:53.795Z,100949.09
2023-01-04T10:58:03.611Z,100936.13
2023-01-04T11:03:43.766Z,100944.31
2023-01-04T11:08:50.568Z,100933.00
2023-01-04T11:13:52.253Z,100925.22
2023-01-04T11:18:53.801Z,100915.38
2023-01-04T11:24:22.017Z,100917.16
2023-01-04T11:29:33.955Z,100903.66
2023-01-04T11:34:49.596Z,100884.97
2023-01-04T11:39:51.173Z,100863.47
2023-01-04T11:44:59.123Z,100852.78
2023-01-04T11:50:00.694Z,100837.88
2023-01-04T11:55:25.996Z,100831.88
2023-01-04T12:00:27.679Z,100820.69
2023-01-04T12:05:32.317Z,100816.00
2023-01-04T12:10:34.060Z,100823.22
2023-01-04T12:16:10.150Z,100819.25
2023-01-04T12:21:26.554Z,100790.47
2023-01-04T12:26:28.184Z,100792.50
2023-01-04T12:31:31.901Z,100787.34
2023-01-04T12:36:39.565Z,100781.41
2023-01-04T12:41:41.057Z,100778.56
2023-01-04T12:46:43.069Z,100778.91
2023-01-04T12:51:58.226Z,100758.00
2023-01-04T12:57:17.958Z,100750.75
2023-01-04T13:02:25.717Z,100757.81
2023-01-04T13:07:39.851Z,100741.00
2023-01-04T13:13:08.687Z,100766.97
2023-01-04T13:18:36.424Z,100766.34
2023-01-04T13:23:40.130Z,100764.59
2023-01-04T13:28:41.604Z,100752.25
2023-01-04T13:33:46.521Z,100750.59
2023-01-04T13:38:48.219Z,100751.97
2023-01-04T13:45:09.150Z,100748.81
2023-01-04T13:50:01.334Z,100747.47
2023-01-04T13:55:24.241Z,100742.28
2023-01-04T14:00:35.818Z,100736.44
2023-01-04T14:05:48.330Z,100729.69
2023-01-04T14:10:50.038Z,100731.38
2023-01-04T14:16:15.273Z,100738.84
2023-01-04T14:21:18.154Z,100742.72
2023-01-04T14:26:33.335Z,100725.25
2023-01-04T14:31:36.664Z,100740.53
2023-01-04T14:36:40.688Z,100734.28
2023-01-04T14:41:53.086Z,100736.53
2023-01-04T14:46:56.377Z,100730.13
2023-01-04T14:52:03.445Z,100719.63
2023-01-04T14:57:05.300Z,100740.81
2023-01-04T15:02:09.038Z,100739.69
2023-01-04T15:07:39.674Z,100726.00
2023-01-04T15:12:41.238Z,100735.22
2023-01-04T15:17:42.723Z,100726.50
2023-01-04T15:22:44.990Z,100737.56
2023-01-04T15:27:46.670Z,100738.38
2023-01-04T15:32:48.370Z,100717.25
2023-01-04T15:37:50.111Z,100731.47
2023-01-04T15:42:51.807Z,100716.69
2023-01-04T15:47:53.725Z,100702.00
2023-01-04T15:52:55.194Z,100686.72
2023-01-04T15:57:57.127Z,100692.66
2023-01-04T16:02:58.614Z,100700.84
2023-01-04T16:08:00.237Z,100692.50
2023-01-04T16:13:01.717Z,100666.53
2023-01-04T16:18:03.260Z,100663.31
2023-01-04T16:23:04.718Z,100651.53
2023-01-04T16:28:06.171Z,100671.34
2023-01-04T16:33:07.646Z,100667.38
2023-01-04T16:38:09.128Z,100676.16
2023-01-04T16:43:10.637Z,100662.06
2023-01-04T16:48:18.107Z,100656.84
2023-01-04T16:53:20.078Z,100648.56
2023-01-04T16:58:21.721Z,100650.59
2023-01-04T17:03:23.268Z,100659.50
2023-01-04T17:08:27.185Z,100661.16
2023-01-04T17:13:28.822Z,100661.88
2023-01-04T17:18:31.768Z,100671.63
2023-01-04T17:23:36.667Z,100665.63
2023-01-04T17:28:39.081Z,100650.81
2023-01-04T17:33:40.598Z,100660.72
2023-01-04T17:38:42.288Z,100677.09
2023-01-04T17:43:46.207Z,100668.84
2023-01-04T17:48:47.650Z,100653.56
2023-01-04T17:53:54.751Z,100661.75
2023-01-04T17:59:01.046Z,100669.44
2023-01-04T18:04:03.633Z,100667.88
2023-01-04T18:09:06.670Z,100658.66
2023-01-04T18:14:10.231Z,100654.91
2023-01-04T18:19:15.544Z,100662.59
2023-01-04T18:24:35.347Z,100651.44
2023-01-04T18:29:38.084Z,100641.63
2023-01-04T18:34:39.695Z,100646.66
2023-01-04T18:39:41.478Z,100657.50
2023-01-04T18:44:48.452Z,100645.63
2023-01-04T18:49:51.611Z,100640.38
2023-01-04T18:54:53.074Z,100637.63
2023-01-04T18:59:54.581Z,100641.22
2023-01-04T19:04:56.040Z,100643.28
2023-01-04T19:09:57.446Z,100661.03
2023-01-04T19:14:58.952Z,100675.09
2023-01-04T19:20:00.367Z,100663.50
2023-01-04T19:25:01.938Z,100659.56
2023-01-04T19:30:03.922Z,100670.16
2023-01-04T19:35:05.787Z,100671.56
2023-01-04T19:40:07.708Z,100677.91
2023-01-04T19:45:09.582Z,100694.84
2023-01-04T19:50:11.402Z,100714.34
2023-01-04T19:55:13.005Z,100719.03
2023-01-04T20:00:15.096Z,100689.47
2023-01-04T20:05:17.168Z,100669.03
2023-01-04T20:10:18.796Z,100667.59
2023-01-04T20:15:21.310Z,100666.31
2023-01-04T20:20:22.821Z,100665.00
2023-01-04T20:25:24.396Z,100663.47
2023-01-04T20:30:25.944Z,100658.53
2023-01-04T20:35:27.655Z,100658.75
2023-01-04T20:40:29.156Z,100652.81
2023-01-04T20:45:30.709Z,100635.91
2023-01-04T20:50:32.581Z,100663.47
2023-01-04T20:55:40.871Z,100659.19
2023-01-04T21:00:43.396Z,100672.38
2023-01-04T21:05:45.337Z,100676.34
2023-01-04T21:10:46.867Z,100683.44
2023-01-04T21:15:48.475Z,100676.22
2023-01-04T21:20:50.488Z,100687.38
2023-01-04T21:25:52.487Z,100677.41
2023-01-04T21:30:53.999Z,100682.16
2023-01-04T21:35:55.532Z,100678.22
2023-01-04T21:40:57.128Z,100673.44
2023-01-04T21:46:04.349Z,100669.34
2023-01-04T21:51:07.176Z,100668.94
2023-01-04T21:56:11.840Z,100659.94
2023-01-04T22:01:19.342Z,100661.44
2023-01-04T22:06:21.033Z,100648.97
2023-01-04T22:11:22.581Z,100651.88
2023-01-04T22:16:24.384Z,100652.97
2023-01-04T22:21:26.232Z,100632.69
2023-01-04T22:26:27.860Z,100627.13
2023-01-04T22:31:29.872Z,100630.47
2023-01-04T22:36:31.540Z,100637.44
2023-01-04T22:41:33.175Z,100617.00
2023-01-04T22:46:35.787Z,100614.25
2023-01-04T22:51:37.408Z,100620.06
2023-01-04T22:56:38.962Z,100637.94
2023-01-04T23:01:40.616Z,100641.66
2023-01-04T23:06:42.575Z,100649.38
2023-01-04T23:11:44.773Z,100637.94
2023-01-04T23:16:46.408Z,100636.00
2023-01-04T23:21:47.962Z,100626.13
2023-01-04T23:26:49.529Z,100614.56
2023-01-04T23:31:51.158Z,100617.50
2023-01-04T23:36:52.666Z,100611.41
2023-01-04T23:41:54.149Z,100625.16
2023-01-04T23:47:00.697Z,100622.66
2023-01-04T23:52:04.099Z,100624.47
2023-01-04T23:57:05.629Z,100611.69
